Airport View

Enter ICAO identifier to see the current METAR for that AWOS.

KFNL for example

KHVR 271053Z AUTO 22003KT 10SM CLR 09/08 A3000 RMK AO2 SLP152 T00940078

27 Aug 2014 11:02

Frequency: 135.225

Phone: 406-265-6638

Other Area AWOS: KS71 - CWOE - K79S - CWEH

TAF KHVR 270520Z 2706/2806 VRB05KT P6SM SCT200